createdAt,value
2023-02-28T00:00:42.534Z,98736.55
2023-02-28T00:03:20.717Z,98741.17
2023-02-28T00:05:50.684Z,98744.59
2023-02-28T00:08:26.233Z,98741.04
2023-02-28T00:10:55.947Z,98739.93
2023-02-28T00:13:26.893Z,98742.01
2023-02-28T00:16:01.823Z,98750.73
2023-02-28T00:18:32.112Z,98748.35
2023-02-28T00:21:02.607Z,98742.71
2023-02-28T00:23:32.724Z,98742.66
2023-02-28T00:26:03.289Z,98744.27
2023-02-28T00:28:34.199Z,98750.43
2023-02-28T00:31:04.825Z,98752.83
2023-02-28T00:33:35.730Z,98755.52
2023-02-28T00:36:09.898Z,98752.48
2023-02-28T00:38:42.000Z,98756.34
2023-02-28T00:41:11.957Z,98762.73
2023-02-28T00:43:42.040Z,98759.61
2023-02-28T00:46:16.934Z,98762.86
2023-02-28T00:48:46.062Z,98761.77
2023-02-28T00:51:15.872Z,98761.30
2023-02-28T00:53:45.678Z,98750.00
2023-02-28T00:56:15.627Z,98745.55
2023-02-28T00:58:46.144Z,98750.83
2023-02-28T01:01:20.078Z,98761.49
2023-02-28T01:03:49.264Z,98767.48
2023-02-28T01:06:19.294Z,98763.16
2023-02-28T01:08:51.058Z,98757.92
2023-02-28T01:11:20.473Z,98755.67
2023-02-28T01:13:50.345Z,98754.57
2023-02-28T01:16:27.366Z,98758.77
2023-02-28T01:18:56.890Z,98754.00
2023-02-28T01:21:27.474Z,98754.88
2023-02-28T01:24:03.867Z,98752.48
2023-02-28T01:26:34.450Z,98754.98
2023-02-28T01:29:04.468Z,98761.33
2023-02-28T01:31:34.138Z,98756.14
2023-02-28T01:34:05.153Z,98755.46
2023-02-28T01:36:34.834Z,98759.20
2023-02-28T01:39:08.389Z,98759.08
2023-02-28T01:41:38.303Z,98760.77
2023-02-28T01:44:47.325Z,98762.19
2023-02-28T01:47:17.067Z,98760.84
2023-02-28T01:49:49.469Z,98764.24
2023-02-28T01:52:21.352Z,98765.69
2023-02-28T01:54:55.083Z,98763.02
2023-02-28T01:57:39.566Z,98760.27
2023-02-28T02:00:15.909Z,98761.06
2023-02-28T02:03:06.446Z,98766.23
2023-02-28T02:05:38.719Z,98762.46
2023-02-28T02:08:37.513Z,98761.44
2023-02-28T02:11:14.769Z,98760.35
2023-02-28T02:14:05.804Z,98766.25
2023-02-28T02:16:55.389Z,98765.32
2023-02-28T02:19:57.929Z,98766.25
2023-02-28T02:22:49.084Z,98774.80
2023-02-28T02:25:25.151Z,98779.83
2023-02-28T02:28:33.432Z,98777.07
2023-02-28T02:31:29.869Z,98775.31
2023-02-28T02:34:09.137Z,98772.79
2023-02-28T02:36:53.611Z,98783.39
2023-02-28T02:39:36.270Z,98784.66
2023-02-28T02:42:24.047Z,98788.04
2023-02-28T02:45:27.387Z,98786.70
2023-02-28T02:48:08.639Z,98785.34
2023-02-28T02:50:45.218Z,98790.15
2023-02-28T02:53:19.532Z,98782.60
2023-02-28T02:55:55.904Z,98786.37
2023-02-28T02:58:30.976Z,98788.23
2023-02-28T03:01:29.436Z,98790.09
2023-02-28T03:04:04.473Z,98784.16
2023-02-28T03:06:38.973Z,98784.58
2023-02-28T03:09:08.090Z,98791.71
2023-02-28T03:11:40.925Z,98784.27
2023-02-28T03:14:56.340Z,98792.33
2023-02-28T03:17:28.590Z,98787.73
2023-02-28T03:20:17.050Z,98785.48
2023-02-28T03:23:19.371Z,98783.50
2023-02-28T03:26:04.552Z,98778.18
2023-02-28T03:29:18.390Z,98777.14
2023-02-28T03:32:29.859Z,98783.99
2023-02-28T03:35:12.753Z,98784.95
2023-02-28T03:37:47.408Z,98782.07
2023-02-28T03:40:28.214Z,98783.84
2023-02-28T03:43:09.774Z,98785.81
2023-02-28T03:45:44.326Z,98793.15
2023-02-28T03:48:27.958Z,98800.04
2023-02-28T03:51:01.326Z,98798.16
2023-02-28T03:53:36.121Z,98802.73
2023-02-28T03:56:15.863Z,98804.73
2023-02-28T03:59:13.559Z,98797.30
2023-02-28T04:01:49.956Z,98799.93
2023-02-28T04:04:21.485Z,98797.69
2023-02-28T04:07:14.996Z,98791.64
2023-02-28T04:09:45.185Z,98793.44
2023-02-28T04:12:15.579Z,98793.62
2023-02-28T04:14:44.865Z,98785.65
2023-02-28T04:17:14.930Z,98781.25
2023-02-28T04:19:45.459Z,98780.36
2023-02-28T04:22:15.478Z,98783.59
2023-02-28T04:24:45.074Z,98781.74
2023-02-28T04:27:17.114Z,98779.52
2023-02-28T04:29:46.499Z,98782.31
2023-02-28T04:32:16.928Z,98781.89
2023-02-28T04:34:47.669Z,98785.05
2023-02-28T04:37:17.214Z,98786.14
2023-02-28T04:39:47.233Z,98785.92
2023-02-28T04:42:17.315Z,98786.64
2023-02-28T04:44:48.901Z,98783.17
2023-02-28T04:47:18.751Z,98780.89
2023-02-28T04:49:49.413Z,98784.45
2023-02-28T04:52:19.875Z,98781.88
2023-02-28T04:54:50.717Z,98782.89
2023-02-28T04:57:20.844Z,98782.88
2023-02-28T04:59:51.123Z,98781.99
2023-02-28T05:02:21.679Z,98782.73
2023-02-28T05:04:50.901Z,98778.94
2023-02-28T05:07:21.151Z,98777.28
2023-02-28T05:09:50.422Z,98775.66
2023-02-28T05:12:20.492Z,98776.87
2023-02-28T05:14:49.992Z,98775.29
2023-02-28T05:17:19.486Z,98777.54
2023-02-28T05:19:54.581Z,98778.80
2023-02-28T05:22:26.335Z,98780.86
2023-02-28T05:24:57.058Z,98786.96
2023-02-28T05:27:44.616Z,98786.54
2023-02-28T05:30:15.693Z,98788.14
2023-02-28T05:32:45.622Z,98790.04
2023-02-28T05:35:17.758Z,98795.92
2023-02-28T05:37:47.283Z,98795.33
2023-02-28T05:40:23.261Z,98797.30
2023-02-28T05:42:53.278Z,98800.77
2023-02-28T05:45:23.490Z,98808.50
2023-02-28T05:47:56.109Z,98812.04
2023-02-28T05:50:26.594Z,98813.94
2023-02-28T05:52:55.957Z,98813.92
2023-02-28T05:55:26.470Z,98812.70
2023-02-28T05:57:57.461Z,98814.89
2023-02-28T06:00:26.861Z,98821.14
2023-02-28T06:02:59.465Z,98823.72
2023-02-28T06:05:29.863Z,98824.29
2023-02-28T06:07:59.654Z,98831.95
2023-02-28T06:10:29.338Z,98836.07
2023-02-28T06:13:04.047Z,98834.27
2023-02-28T06:15:36.979Z,98837.23
2023-02-28T06:18:07.254Z,98838.83
2023-02-28T06:20:37.799Z,98839.92
2023-02-28T06:23:08.754Z,98841.15
2023-02-28T06:25:38.492Z,98840.63
2023-02-28T06:28:08.817Z,98835.21
2023-02-28T06:30:41.772Z,98834.41
2023-02-28T06:33:13.973Z,98839.21
2023-02-28T06:35:48.101Z,98843.11
2023-02-28T06:38:19.580Z,98847.34
2023-02-28T06:41:01.065Z,98852.50
2023-02-28T06:43:33.594Z,98851.94
2023-02-28T06:46:06.366Z,98852.86
2023-02-28T06:48:37.041Z,98853.89
2023-02-28T06:51:11.271Z,98855.94
2023-02-28T06:53:40.561Z,98851.77
2023-02-28T06:56:13.368Z,98849.23
2023-02-28T06:58:43.464Z,98851.36
2023-02-28T07:01:15.605Z,98853.16
2023-02-28T07:03:57.449Z,98857.23
2023-02-28T07:06:39.149Z,98858.08
2023-02-28T07:09:09.522Z,98858.50
2023-02-28T07:11:39.424Z,98855.09
2023-02-28T07:14:09.334Z,98849.58
2023-02-28T07:16:39.284Z,98849.58
2023-02-28T07:19:09.385Z,98842.58
2023-02-28T07:21:40.874Z,98838.62
2023-02-28T07:24:11.941Z,98842.93
2023-02-28T07:26:41.913Z,98843.41
2023-02-28T07:29:11.575Z,98841.55
2023-02-28T07:31:41.201Z,98843.66
2023-02-28T07:34:10.488Z,98842.30
2023-02-28T07:36:41.088Z,98841.83
2023-02-28T07:39:12.507Z,98841.20
2023-02-28T07:41:44.942Z,98839.65
2023-02-28T07:44:15.324Z,98844.10
2023-02-28T07:46:45.415Z,98848.37
2023-02-28T07:49:15.947Z,98847.04
2023-02-28T07:51:46.200Z,98851.49
2023-02-28T07:54:16.539Z,98853.01
2023-02-28T07:56:46.395Z,98847.44
2023-02-28T07:59:17.088Z,98844.36
2023-02-28T08:01:46.986Z,98843.98
2023-02-28T08:04:16.472Z,98848.58
2023-02-28T08:06:46.410Z,98853.99
2023-02-28T08:09:16.521Z,98850.23
2023-02-28T08:11:46.605Z,98849.90
2023-02-28T08:14:16.980Z,98847.88
2023-02-28T08:16:46.072Z,98853.10
2023-02-28T08:19:17.107Z,98854.34
2023-02-28T08:21:46.202Z,98854.09
2023-02-28T08:24:16.326Z,98854.77
2023-02-28T08:26:46.653Z,98853.40
2023-02-28T08:29:18.487Z,98855.33
2023-02-28T08:31:48.992Z,98857.27
2023-02-28T08:34:18.876Z,98855.11
2023-02-28T08:36:48.762Z,98855.30
2023-02-28T08:39:19.593Z,98857.55
2023-02-28T08:42:02.203Z,98859.85
2023-02-28T08:44:37.091Z,98860.48
2023-02-28T08:47:06.710Z,98866.03
2023-02-28T08:49:39.171Z,98862.64
2023-02-28T08:52:09.463Z,98863.05
2023-02-28T08:54:39.580Z,98863.42
2023-02-28T08:57:09.563Z,98865.10
2023-02-28T08:59:39.445Z,98866.77
2023-02-28T09:02:13.943Z,98865.24
2023-02-28T09:04:49.182Z,98870.08
2023-02-28T09:07:18.747Z,98870.95
2023-02-28T09:09:55.303Z,98872.10
2023-02-28T09:12:27.509Z,98871.27
2023-02-28T09:15:01.306Z,98870.45
2023-02-28T09:17:31.203Z,98871.79
2023-02-28T09:20:01.224Z,98869.27
2023-02-28T09:22:30.734Z,98871.44
2023-02-28T09:25:03.137Z,98871.17
2023-02-28T09:27:33.689Z,98870.00
2023-02-28T09:30:03.181Z,98870.61
2023-02-28T09:32:32.823Z,98872.54
2023-02-28T09:35:03.218Z,98878.94
2023-02-28T09:37:33.535Z,98881.42
2023-02-28T09:40:05.283Z,98881.27
2023-02-28T09:42:35.933Z,98878.71
2023-02-28T09:45:27.306Z,98873.23
2023-02-28T09:48:05.743Z,98870.23
2023-02-28T09:50:37.396Z,98872.64
2023-02-28T09:53:29.478Z,98872.70
2023-02-28T09:56:12.261Z,98871.90
2023-02-28T09:59:08.616Z,98871.94
2023-02-28T10:02:05.226Z,98870.92
2023-02-28T10:04:56.911Z,98867.29
2023-02-28T10:07:56.564Z,98871.11
2023-02-28T10:10:58.618Z,98869.39
2023-02-28T10:13:34.301Z,98869.17
2023-02-28T10:16:13.300Z,98870.05
2023-02-28T10:19:07.998Z,98869.83
2023-02-28T10:21:50.502Z,98867.13
2023-02-28T10:24:33.303Z,98863.41
2023-02-28T10:27:17.713Z,98861.73
2023-02-28T10:29:54.921Z,98862.66
2023-02-28T10:32:31.447Z,98858.06
2023-02-28T10:35:19.966Z,98860.32
2023-02-28T10:37:54.824Z,98855.52
2023-02-28T10:40:24.667Z,98851.05
2023-02-28T10:42:58.437Z,98843.56
2023-02-28T10:45:31.129Z,98843.13
2023-02-28T10:48:02.949Z,98839.83
2023-02-28T10:50:55.856Z,98845.41
2023-02-28T10:53:28.555Z,98847.48
2023-02-28T10:56:19.009Z,98846.83
2023-02-28T10:59:02.311Z,98846.00
2023-02-28T11:01:32.094Z,98844.35
2023-02-28T11:04:04.676Z,98841.78
2023-02-28T11:06:36.625Z,98839.54
2023-02-28T11:09:23.660Z,98834.05
2023-02-28T11:11:57.124Z,98835.27
2023-02-28T11:14:31.356Z,98829.89
2023-02-28T11:17:25.202Z,98826.98
2023-02-28T11:20:16.373Z,98826.02
2023-02-28T11:22:47.968Z,98822.60
2023-02-28T11:25:37.836Z,98817.47
2023-02-28T11:28:34.671Z,98818.42
2023-02-28T11:31:17.861Z,98819.20
2023-02-28T11:33:57.271Z,98816.88
2023-02-28T11:36:30.952Z,98815.86
2023-02-28T11:39:06.871Z,98813.45
2023-02-28T11:42:03.816Z,98815.73
2023-02-28T11:44:48.495Z,98819.55
2023-02-28T11:47:27.397Z,98814.88
2023-02-28T11:50:36.368Z,98817.31
2023-02-28T11:54:01.402Z,98816.02
2023-02-28T11:56:51.593Z,98815.65
2023-02-28T11:59:30.768Z,98813.20
2023-02-28T12:02:59.263Z,98813.46
2023-02-28T12:05:48.924Z,98813.51
2023-02-28T12:08:45.898Z,98814.91
2023-02-28T12:11:41.579Z,98806.48
2023-02-28T12:14:30.882Z,98806.98
2023-02-28T12:17:06.221Z,98807.84
2023-02-28T12:20:24.556Z,98808.54
2023-02-28T12:23:41.071Z,98801.40
2023-02-28T12:26:40.128Z,98798.97
2023-02-28T12:29:25.426Z,98795.56
2023-02-28T12:32:39.209Z,98796.70
2023-02-28T12:35:11.751Z,98802.05
2023-02-28T12:37:51.620Z,98801.58
2023-02-28T12:40:44.508Z,98794.63
2023-02-28T12:43:16.848Z,98790.65
2023-02-28T12:46:19.330Z,98787.77
2023-02-28T12:48:53.977Z,98792.46
2023-02-28T12:51:31.790Z,98788.59
2023-02-28T12:54:25.685Z,98786.06
2023-02-28T12:57:36.454Z,98780.55
2023-02-28T13:00:48.796Z,98777.10
2023-02-28T13:03:29.808Z,98775.63
2023-02-28T13:07:01.342Z,98777.30
2023-02-28T13:09:32.638Z,98773.83
2023-02-28T13:12:18.321Z,98777.19
2023-02-28T13:14:50.173Z,98780.88
2023-02-28T13:17:27.507Z,98783.27
2023-02-28T13:20:02.389Z,98779.76
2023-02-28T13:22:36.503Z,98781.16
2023-02-28T13:25:26.791Z,98784.14
2023-02-28T13:27:58.148Z,98785.70
2023-02-28T13:30:52.362Z,98787.09
2023-02-28T13:33:29.246Z,98789.04
2023-02-28T13:36:26.820Z,98782.42
2023-02-28T13:39:06.058Z,98789.01
2023-02-28T13:41:35.937Z,98789.45
2023-02-28T13:44:39.996Z,98789.99
2023-02-28T13:47:34.581Z,98786.83
2023-02-28T13:50:27.173Z,98787.54
2023-02-28T13:53:15.400Z,98783.27
2023-02-28T13:56:26.787Z,98783.27
2023-02-28T13:59:23.900Z,98782.02
2023-02-28T14:02:25.450Z,98784.98
2023-02-28T14:05:18.681Z,98779.33
2023-02-28T14:07:54.563Z,98780.69
2023-02-28T14:10:32.828Z,98781.90
2023-02-28T14:13:27.486Z,98781.30
2023-02-28T14:16:02.617Z,98780.36
2023-02-28T14:18:39.607Z,98782.26
2023-02-28T14:21:14.757Z,98784.10
2023-02-28T14:24:23.464Z,98779.96
2023-02-28T14:27:15.478Z,98777.27
2023-02-28T14:30:06.435Z,98773.61
2023-02-28T14:32:52.441Z,98773.42
2023-02-28T14:35:44.561Z,98771.34
2023-02-28T14:38:22.854Z,98764.13
2023-02-28T14:40:58.583Z,98764.52
2023-02-28T14:43:30.778Z,98768.61
2023-02-28T14:46:22.584Z,98768.09
2023-02-28T14:49:33.965Z,98765.84
2023-02-28T14:52:20.619Z,98769.52
2023-02-28T14:55:04.941Z,98767.63
2023-02-28T14:57:43.139Z,98768.21
2023-02-28T15:00:23.434Z,98766.38
2023-02-28T15:02:55.213Z,98768.38
2023-02-28T15:05:29.506Z,98768.15
2023-02-28T15:08:18.538Z,98772.64
2023-02-28T15:11:03.078Z,98773.86
2023-02-28T15:13:57.796Z,98774.30
2023-02-28T15:16:41.714Z,98769.96
2023-02-28T15:19:30.984Z,98770.48
2023-02-28T15:22:18.220Z,98766.58
2023-02-28T15:24:54.653Z,98766.50
2023-02-28T15:27:34.650Z,98767.85
2023-02-28T15:30:18.461Z,98765.77
2023-02-28T15:33:06.501Z,98762.73
2023-02-28T15:35:37.061Z,98758.23
2023-02-28T15:38:29.387Z,98763.45
2023-02-28T15:41:00.745Z,98758.77
2023-02-28T15:43:38.773Z,98763.87
2023-02-28T15:46:14.736Z,98766.07
2023-02-28T15:48:58.499Z,98767.13
2023-02-28T15:51:38.289Z,98769.68
2023-02-28T15:54:16.326Z,98769.80
2023-02-28T15:56:55.301Z,98768.83
2023-02-28T15:59:31.293Z,98773.41
2023-02-28T16:02:05.641Z,98772.74
2023-02-28T16:04:35.132Z,98771.73
2023-02-28T16:07:06.849Z,98771.39
2023-02-28T16:09:39.364Z,98770.08
2023-02-28T16:12:14.964Z,98771.02
2023-02-28T16:14:48.447Z,98770.73
2023-02-28T16:17:31.219Z,98773.33
2023-02-28T16:20:36.646Z,98775.40
2023-02-28T16:23:09.984Z,98783.11
2023-02-28T16:25:43.938Z,98786.92
2023-02-28T16:28:34.980Z,98787.44
2023-02-28T16:31:08.085Z,98791.10
2023-02-28T16:33:41.899Z,98787.66
2023-02-28T16:36:30.837Z,98783.80
2023-02-28T16:39:00.266Z,98786.94
2023-02-28T16:41:31.226Z,98786.85
2023-02-28T16:44:02.478Z,98783.45
2023-02-28T16:46:38.167Z,98782.86
2023-02-28T16:49:14.649Z,98782.67
2023-02-28T16:51:44.619Z,98781.77
2023-02-28T16:54:14.424Z,98786.77
2023-02-28T16:56:48.635Z,98789.20
2023-02-28T16:59:24.926Z,98791.54
2023-02-28T17:01:55.776Z,98796.28
2023-02-28T17:04:26.861Z,98795.23
2023-02-28T17:06:57.005Z,98796.56
2023-02-28T17:09:41.269Z,98795.32
2023-02-28T17:12:12.727Z,98794.39
2023-02-28T17:14:41.993Z,98797.89
2023-02-28T17:17:22.923Z,98799.29
2023-02-28T17:19:53.531Z,98799.82
2023-02-28T17:22:27.275Z,98797.40
2023-02-28T17:24:57.153Z,98796.13
2023-02-28T17:27:28.570Z,98796.48
2023-02-28T17:29:58.998Z,98799.02
2023-02-28T17:32:29.519Z,98804.52
2023-02-28T17:35:00.797Z,98805.33
2023-02-28T17:37:30.367Z,98804.30
2023-02-28T17:40:00.790Z,98804.33
2023-02-28T17:42:30.294Z,98799.33
2023-02-28T17:45:00.274Z,98800.27
2023-02-28T17:47:29.618Z,98798.23
2023-02-28T17:49:59.809Z,98797.84
2023-02-28T17:52:30.909Z,98794.76
2023-02-28T17:55:07.562Z,98794.28
2023-02-28T17:57:37.293Z,98793.75
2023-02-28T18:00:08.166Z,98790.95
2023-02-28T18:02:41.472Z,98791.29
2023-02-28T18:05:15.982Z,98793.02
2023-02-28T18:07:46.002Z,98786.16
2023-02-28T18:10:22.540Z,98784.83
2023-02-28T18:12:53.770Z,98791.89
2023-02-28T18:15:24.118Z,98799.22
2023-02-28T18:17:53.496Z,98801.84
2023-02-28T18:20:24.521Z,98801.23
2023-02-28T18:22:54.431Z,98798.64
2023-02-28T18:25:26.784Z,98795.17
2023-02-28T18:27:58.980Z,98796.02
2023-02-28T18:30:34.001Z,98799.19
2023-02-28T18:33:05.238Z,98806.05
2023-02-28T18:35:37.760Z,98800.67
2023-02-28T18:38:17.077Z,98798.05
2023-02-28T18:41:08.799Z,98800.85
2023-02-28T18:43:40.770Z,98798.98
2023-02-28T18:46:13.514Z,98798.92
2023-02-28T18:48:44.273Z,98801.63
2023-02-28T18:51:20.234Z,98800.32
2023-02-28T18:53:52.075Z,98801.70
2023-02-28T18:56:25.628Z,98801.80
2023-02-28T18:58:55.242Z,98801.92
2023-02-28T19:01:31.524Z,98800.52
2023-02-28T19:04:03.881Z,98800.70
2023-02-28T19:06:34.873Z,98799.37
2023-02-28T19:09:04.809Z,98799.86
2023-02-28T19:11:36.658Z,98801.98
2023-02-28T19:14:06.434Z,98803.13
2023-02-28T19:16:36.699Z,98802.65
2023-02-28T19:19:07.071Z,98797.84
2023-02-28T19:21:37.055Z,98800.24
2023-02-28T19:24:07.098Z,98802.16
2023-02-28T19:26:37.234Z,98807.59
2023-02-28T19:29:07.203Z,98808.63
2023-02-28T19:31:38.679Z,98812.43
2023-02-28T19:34:08.643Z,98810.89
2023-02-28T19:36:39.111Z,98813.23
2023-02-28T19:39:09.733Z,98818.30
2023-02-28T19:41:40.230Z,98816.31
2023-02-28T19:44:11.490Z,98815.11
2023-02-28T19:46:40.962Z,98812.21
2023-02-28T19:49:10.248Z,98810.53
2023-02-28T19:51:44.284Z,98809.15
2023-02-28T19:54:14.165Z,98806.45
2023-02-28T19:56:44.516Z,98798.67
2023-02-28T19:59:21.458Z,98800.65
2023-02-28T20:01:57.030Z,98799.27
2023-02-28T20:04:28.221Z,98797.91
2023-02-28T20:06:58.702Z,98797.52
2023-02-28T20:09:33.124Z,98797.53
2023-02-28T20:12:09.272Z,98797.23
2023-02-28T20:14:45.221Z,98799.04
2023-02-28T20:17:17.761Z,98797.23
2023-02-28T20:19:47.377Z,98797.08
2023-02-28T20:22:17.358Z,98795.12
2023-02-28T20:24:48.644Z,98792.58
2023-02-28T20:27:18.918Z,98787.95
2023-02-28T20:29:49.348Z,98792.98
2023-02-28T20:32:18.920Z,98791.77
2023-02-28T20:34:49.109Z,98790.36
2023-02-28T20:37:18.471Z,98794.69
2023-02-28T20:39:50.217Z,98795.63
2023-02-28T20:42:22.613Z,98793.44
2023-02-28T20:44:53.091Z,98791.27
2023-02-28T20:47:22.679Z,98798.35
2023-02-28T20:49:52.607Z,98801.05
2023-02-28T20:52:22.727Z,98800.08
2023-02-28T20:54:53.506Z,98795.09
2023-02-28T20:57:25.706Z,98791.73
2023-02-28T20:59:59.056Z,98792.27
2023-02-28T21:02:39.655Z,98789.73
2023-02-28T21:05:10.059Z,98790.31
2023-02-28T21:07:39.771Z,98788.83
2023-02-28T21:10:12.924Z,98790.95
2023-02-28T21:12:43.848Z,98790.75
2023-02-28T21:15:18.925Z,98791.98
2023-02-28T21:17:49.546Z,98794.16
2023-02-28T21:20:22.353Z,98793.35
2023-02-28T21:22:54.344Z,98793.06
2023-02-28T21:25:24.654Z,98798.41
2023-02-28T21:27:56.073Z,98798.84
2023-02-28T21:30:26.303Z,98803.86
2023-02-28T21:32:58.303Z,98805.88
2023-02-28T21:35:30.974Z,98803.85
2023-02-28T21:38:00.373Z,98805.84
2023-02-28T21:40:30.409Z,98806.88
2023-02-28T21:43:00.451Z,98805.25
2023-02-28T21:45:31.619Z,98804.06
2023-02-28T21:48:05.689Z,98802.13
2023-02-28T21:50:35.070Z,98796.23
2023-02-28T21:53:04.710Z,98793.34
2023-02-28T21:55:35.733Z,98790.64
2023-02-28T21:58:05.613Z,98790.66
2023-02-28T22:00:36.070Z,98792.96
2023-02-28T22:03:06.170Z,98792.52
2023-02-28T22:05:36.193Z,98795.64
2023-02-28T22:08:07.199Z,98794.75
2023-02-28T22:10:36.976Z,98799.72
2023-02-28T22:13:16.221Z,98796.68
2023-02-28T22:15:47.066Z,98795.08
2023-02-28T22:18:17.307Z,98800.19
2023-02-28T22:20:57.551Z,98801.45
2023-02-28T22:23:26.870Z,98801.93
2023-02-28T22:25:58.080Z,98807.47
2023-02-28T22:28:30.893Z,98805.11
2023-02-28T22:31:06.483Z,98806.08
2023-02-28T22:33:36.097Z,98803.67
2023-02-28T22:36:09.512Z,98805.95
2023-02-28T22:38:40.331Z,98811.42
2023-02-28T22:41:13.402Z,98816.06
2023-02-28T22:43:44.540Z,98820.33
2023-02-28T22:46:14.273Z,98826.33
2023-02-28T22:48:44.415Z,98827.73
2023-02-28T22:51:20.472Z,98826.20
2023-02-28T22:53:52.412Z,98825.81
2023-02-28T22:56:24.642Z,98825.95
2023-02-28T22:58:57.514Z,98818.69
2023-02-28T23:01:30.910Z,98824.69
2023-02-28T23:04:01.924Z,98824.27
2023-02-28T23:06:38.360Z,98821.10
2023-02-28T23:09:12.222Z,98823.58
2023-02-28T23:11:46.098Z,98828.56
2023-02-28T23:14:18.520Z,98826.05
2023-02-28T23:16:52.088Z,98826.63
2023-02-28T23:19:31.050Z,98823.75
2023-02-28T23:22:03.180Z,98824.02
2023-02-28T23:24:35.697Z,98825.54
2023-02-28T23:27:05.788Z,98829.50
2023-02-28T23:29:36.622Z,98829.60
2023-02-28T23:32:06.831Z,98827.58
2023-02-28T23:34:36.924Z,98828.68
2023-02-28T23:37:06.726Z,98825.34
2023-02-28T23:39:36.918Z,98823.69
2023-02-28T23:42:06.774Z,98825.13
2023-02-28T23:44:41.038Z,98822.46
2023-02-28T23:47:14.453Z,98824.11
2023-02-28T23:49:48.904Z,98823.87
2023-02-28T23:52:22.341Z,98822.96
2023-02-28T23:54:54.580Z,98822.98
2023-02-28T23:57:23.993Z,98822.20
2023-02-28T23:59:55.739Z,98815.77
